Time;durP1;ratioP1;P1;durP2;ratioP2;P2;SDS_P1;SDS_P2;PMS_P1;PMS_P2;Temp;Humidity;BMP_temperature;BMP_pressure;BME280_temperature;BME280_humidity;BME280_pressure;Samples;Min_cycle;Max_cycle;Signal;HPM_P1;HPM_P2
2022/01/08 00:02:09;;;;;;;18.58;6.68;;;;;;;12.41;44.16;100077.28;4424589;32;20073;-67
2022/01/08 00:04:34;;;;;;;17.48;5.70;;;;;;;12.39;43.84;100072.09;4424713;32;20506;-67
2022/01/08 00:07:00;;;;;;;20.17;6.05;;;;;;;12.45;43.78;100063.81;4424473;32;20121;-67
2022/01/08 00:09:26;;;;;;;11.40;4.50;;;;;;;12.40;43.84;100061.59;4425077;32;20446;-67
2022/01/08 00:11:51;;;;;;;13.77;4.82;;;;;;;12.14;44.34;100049.78;4424334;32;20434;-67
2022/01/08 00:14:21;;;;;;;18.80;5.55;;;;;;;12.20;44.21;100041.47;4423303;32;20077;-66
2022/01/08 00:16:46;;;;;;;19.35;5.72;;;;;;;12.27;43.95;100038.38;4425705;32;20166;-67
2022/01/08 00:19:12;;;;;;;16.65;5.78;;;;;;;12.40;43.44;100044.66;4424397;32;20569;-67
2022/01/08 00:21:38;;;;;;;15.65;6.12;;;;;;;12.47;43.46;100039.50;4423807;32;20099;-67
2022/01/08 00:24:04;;;;;;;20.37;6.53;;;;;;;12.45;43.57;100044.06;4423913;32;21786;-67
2022/01/08 00:26:30;;;;;;;15.73;5.60;;;;;;;12.58;43.41;100042.62;4423462;32;20081;-67
2022/01/08 00:28:57;;;;;;;20.27;5.70;;;;;;;12.67;43.66;100047.53;4423586;32;20057;-67
2022/01/08 00:31:23;;;;;;;23.90;5.72;;;;;;;12.64;43.74;100037.94;4422593;32;20548;-67
2022/01/08 00:33:48;;;;;;;14.68;4.95;;;;;;;12.66;43.64;100048.75;4424723;32;20098;-67
2022/01/08 00:36:14;;;;;;;18.10;5.35;;;;;;;12.68;43.41;100035.78;4423705;32;20537;-67
2022/01/08 00:38:40;;;;;;;14.85;5.10;;;;;;;12.77;43.64;100030.13;4424814;32;20075;-67
2022/01/08 00:41:06;;;;;;;15.75;5.65;;;;;;;12.69;43.28;100026.03;4424459;32;20105;-67
2022/01/08 00:43:32;;;;;;;15.88;6.03;;;;;;;12.76;43.62;100025.72;4425269;32;20053;-67
2022/01/08 00:45:57;;;;;;;15.25;5.43;;;;;;;12.75;43.63;100031.84;4422881;32;20096;-67
2022/01/08 00:48:23;;;;;;;14.38;5.40;;;;;;;12.78;43.33;100030.91;4425530;32;20325;-67
2022/01/08 00:50:52;;;;;;;14.15;5.50;;;;;;;12.75;43.72;100021.34;4422828;32;20111;-67
2022/01/08 00:53:19;;;;;;;15.07;5.00;;;;;;;12.77;43.67;100023.69;4423694;32;20073;-67
2022/01/08 00:55:45;;;;;;;18.00;5.60;;;;;;;12.70;43.42;100013.47;4422389;32;20033;-67
2022/01/08 00:58:12;;;;;;;16.33;4.80;;;;;;;12.90;43.37;100002.50;4423852;32;20060;-67
2022/01/08 01:00:38;;;;;;;12.45;5.05;;;;;;;12.75;43.42;99997.97;4421776;32;20124;-67
2022/01/08 01:03:04;;;;;;;12.57;4.80;;;;;;;12.75;43.57;100000.78;4423745;32;20095;-67
2022/01/08 01:05:30;;;;;;;18.77;5.28;;;;;;;12.82;43.47;99989.97;4423842;32;20057;-67
2022/01/08 01:07:56;;;;;;;17.08;5.37;;;;;;;12.86;43.61;99984.94;4424517;32;20548;-67
2022/01/08 01:10:22;;;;;;;15.07;5.28;;;;;;;12.71;43.64;99997.34;4413966;32;20041;-67
2022/01/08 01:12:47;;;;;;;17.25;4.62;;;;;;;12.77;43.76;99992.63;4422947;32;20420;-67
2022/01/08 01:15:15;;;;;;;17.00;5.10;;;;;;;12.75;43.75;99986.66;4423612;32;20026;-67
2022/01/08 01:17:43;;;;;;;14.18;4.72;;;;;;;13.00;43.27;99981.50;4421027;32;20077;-67
2022/01/08 01:20:13;;;;;;;14.07;4.90;;;;;;;13.06;43.13;99971.13;4420116;32;20068;-67
2022/01/08 01:23:01;;;;;;;10.77;4.75;;;;;;;13.12;43.17;99974.88;4422047;32;20656;-67
2022/01/08 01:25:33;;;;;;;14.27;4.90;;;;;;;12.91;43.11;99967.34;4422662;32;20104;-67
2022/01/08 01:28:03;;;;;;;17.00;3.55;;;;;;;13.00;43.12;99964.56;4424387;32;20085;-67
2022/01/08 01:30:56;;;;;;;13.30;3.90;;;;;;;12.95;43.10;99959.50;4422284;32;20033;-67
2022/01/08 01:41:54;;;;;;;7.78;2.10;;;;;;;13.11;42.33;99936.59;4424207;32;20080;-67
2022/01/08 01:47:01;;;;;;;8.98;1.83;;;;;;;12.96;42.00;99946.16;3973899;32;15147104;-67
2022/01/08 01:49:27;;;;;;;11.55;2.50;;;;;;;12.96;42.00;99946.16;4420320;32;20123;-67
2022/01/08 01:51:53;;;;;;;25.55;3.12;;;;;;;12.73;42.42;99935.56;4432652;32;20674;-67
2022/01/08 01:54:19;;;;;;;13.48;2.10;;;;;;;12.64;42.26;99936.31;4430886;32;20041;-67
2022/01/08 01:56:45;;;;;;;9.35;1.73;;;;;;;12.68;41.87;99922.06;4426493;32;20059;-67
2022/01/08 01:59:12;;;;;;;6.60;1.83;;;;;;;12.41;42.49;99928.50;4432489;32;20094;-68
2022/01/08 02:01:38;;;;;;;9.48;1.67;;;;;;;12.73;42.04;99915.78;4430732;32;20374;-67
2022/01/08 02:04:04;;;;;;;10.63;1.92;;;;;;;12.79;41.60;99916.72;4428400;32;20094;-68
2022/01/08 02:06:30;;;;;;;10.20;1.98;;;;;;;12.98;41.47;99910.53;4429729;32;20077;-67
2022/01/08 02:08:56;;;;;;;8.68;1.80;;;;;;;12.39;41.83;99907.69;4431874;32;20062;-67
2022/01/08 02:11:22;;;;;;;11.60;2.33;;;;;;;12.65;41.50;99901.22;4426100;32;20179;-67
2022/01/08 02:13:47;;;;;;;12.68;1.52;;;;;;;12.43;42.16;99897.00;4430256;32;20064;-66
2022/01/08 02:16:17;;;;;;;11.32;1.90;;;;;;;12.69;41.79;99898.22;4430424;32;20107;-66
2022/01/08 02:18:45;;;;;;;8.73;1.80;;;;;;;12.63;42.12;99902.94;4428490;32;20034;-68
2022/01/08 02:21:12;;;;;;;9.65;1.70;;;;;;;12.43;42.93;99903.44;4425343;32;20362;-66
2022/01/08 02:23:39;;;;;;;8.43;2.12;;;;;;;12.26;43.31;99905.00;4428389;32;20414;-68
2022/01/08 02:26:07;;;;;;;16.08;2.20;;;;;;;12.46;42.99;99893.25;4430608;32;20029;-68
2022/01/08 02:28:35;;;;;;;10.52;1.70;;;;;;;12.48;43.29;99893.53;4428746;32;20117;-68
2022/01/08 02:31:02;;;;;;;14.87;2.30;;;;;;;12.56;43.22;99877.84;4430133;32;20619;-67
2022/01/08 02:33:28;;;;;;;6.22;1.83;;;;;;;12.26;43.91;99862.69;4428025;32;20472;-66
2022/01/08 02:35:54;;;;;;;12.10;2.10;;;;;;;12.29;43.83;99875.84;4426462;32;20129;-68
2022/01/08 02:38:20;;;;;;;8.15;1.98;;;;;;;12.14;43.73;99869.28;4427533;32;20524;-67
2022/01/08 02:40:55;;;;;;;8.93;1.87;;;;;;;12.07;44.25;99867.56;4429024;32;20069;-67
2022/01/08 02:43:23;;;;;;;7.07;1.85;;;;;;;12.44;43.39;99859.06;4426401;32;20034;-67
2022/01/08 02:45:49;;;;;;;16.25;2.33;;;;;;;12.55;43.19;99859.38;4423232;32;20103;-67
2022/01/08 02:48:15;;;;;;;12.40;2.00;;;;;;;12.31;43.30;99839.50;4429576;32;20072;-67
2022/01/08 02:50:41;;;;;;;6.43;1.85;;;;;;;12.37;43.43;99831.19;4428152;32;20064;-67
2022/01/08 02:53:07;;;;;;;10.93;1.90;;;;;;;12.37;43.21;99826.34;4426303;32;20077;-67
2022/01/08 02:55:32;;;;;;;9.98;1.73;;;;;;;12.32;43.38;99829.78;4429575;32;20055;-67
2022/01/08 02:57:58;;;;;;;8.50;2.55;;;;;;;11.97;43.83;99820.84;4421963;32;20026;-68
2022/01/08 03:00:24;;;;;;;9.43;2.20;;;;;;;12.31;43.37;99818.97;4411548;32;20042;-68
2022/01/08 03:02:52;;;;;;;14.02;2.08;;;;;;;12.04;43.93;99794.41;4414728;32;20037;-69
2022/01/08 03:05:17;;;;;;;7.87;1.95;;;;;;;12.45;43.39;99787.28;4412610;32;20022;-70
2022/01/08 03:07:46;;;;;;;9.25;1.90;;;;;;;11.99;44.11;99792.19;4418197;32;20055;-70
2022/01/08 03:10:14;;;;;;;9.70;1.75;;;;;;;11.99;44.17;99778.88;4411011;32;20112;-70
2022/01/08 03:12:41;;;;;;;12.75;2.10;;;;;;;11.42;45.99;99774.13;4416085;32;20034;-70
2022/01/08 03:15:10;;;;;;;16.80;2.70;;;;;;;11.16;46.31;99763.59;4419274;32;20037;-70
2022/01/08 03:17:35;;;;;;;11.18;2.10;;;;;;;11.09;46.67;99755.47;4418252;32;20519;-70
2022/01/08 03:20:05;;;;;;;11.50;2.12;;;;;;;10.72;47.29;99734.87;4416658;32;20082;-70
2022/01/08 03:22:31;;;;;;;8.15;1.73;;;;;;;10.91;47.25;99732.91;4417322;32;20364;-70
2022/01/08 03:24:57;;;;;;;9.80;1.92;;;;;;;11.05;47.07;99726.69;4413513;32;20056;-70
2022/01/08 03:27:23;;;;;;;14.20;2.30;;;;;;;11.09;46.80;99730.12;4418295;32;20080;-68
2022/01/08 03:29:49;;;;;;;8.38;1.55;;;;;;;11.20;46.73;99722.78;4416108;32;20033;-68
2022/01/08 03:32:15;;;;;;;18.17;3.10;;;;;;;11.39;46.50;99709.53;4413380;32;20089;-68
2022/01/08 03:34:41;;;;;;;11.70;1.80;;;;;;;11.62;46.17;99711.72;4415930;32;20611;-68
2022/01/08 03:37:06;;;;;;;13.07;2.30;;;;;;;11.42;46.44;99705.75;4420392;32;20041;-68
2022/01/08 03:39:32;;;;;;;14.90;2.10;;;;;;;11.46;46.49;99697.94;4418669;32;20089;-69
2022/01/08 03:41:59;;;;;;;4.62;1.50;;;;;;;11.48;46.43;99693.38;4421440;32;20580;-70
2022/01/08 03:44:24;;;;;;;18.73;2.08;;;;;;;11.35;46.58;99677.91;4415186;32;20095;-71
2022/01/08 03:46:50;;;;;;;8.77;1.67;;;;;;;11.55;46.11;99693.09;4411654;32;20076;-69
2022/01/08 03:49:25;;;;;;;16.15;2.15;;;;;;;11.45;46.69;99688.69;4408219;32;20088;-69
2022/01/08 03:51:53;;;;;;;13.80;2.57;;;;;;;11.61;46.42;99681.97;4416341;32;20219;-69
2022/01/08 03:54:19;;;;;;;10.10;1.80;;;;;;;11.73;46.61;99686.69;4416485;32;20341;-69
2022/01/08 03:56:46;;;;;;;10.80;2.08;;;;;;;11.65;46.18;99691.84;4416562;32;20133;-69
2022/01/08 03:59:11;;;;;;;8.70;2.55;;;;;;;11.53;46.74;99670.22;4415678;32;20109;-69
2022/01/08 04:01:37;;;;;;;14.15;2.00;;;;;;;11.96;45.79;99669.09;4412468;32;20113;-69
2022/01/08 04:04:03;;;;;;;14.07;1.98;;;;;;;12.04;45.59;99659.84;4418560;32;20049;-70
2022/01/08 04:06:29;;;;;;;11.15;1.95;;;;;;;12.13;45.42;99653.38;4414543;32;20078;-71
2022/01/08 04:08:57;;;;;;;9.63;2.28;;;;;;;12.29;45.29;99649.38;4415319;32;20449;-70
2022/01/08 04:11:25;;;;;;;12.65;1.70;;;;;;;12.44;44.99;99651.06;4417679;32;20044;-70
2022/01/08 04:13:52;;;;;;;9.90;1.80;;;;;;;12.52;44.84;99634.56;4416268;32;20078;-70
2022/01/08 04:16:23;;;;;;;13.07;2.40;;;;;;;12.61;44.96;99638.09;4416650;32;20106;-70
2022/01/08 04:18:48;;;;;;;11.02;2.00;;;;;;;12.75;44.82;99625.31;4419330;32;20164;-70
2022/01/08 04:24:01;;;;;;;;;;;;;;;12.38;45.43;99604.22;4414981;32;20147;-70
2022/01/08 04:26:27;;;;;;;10.73;2.20;;;;;;;12.49;45.39;99596.78;4414603;32;19984;-70
2022/01/08 04:28:54;;;;;;;12.50;1.83;;;;;;;12.07;46.57;99593.25;4415137;32;20152;-70
2022/01/08 04:31:22;;;;;;;11.73;1.83;;;;;;;11.99;47.26;99583.56;4414528;32;20092;-70
2022/01/08 04:33:48;;;;;;;10.60;1.98;;;;;;;11.80;48.14;99582.84;4421263;32;20465;-70
2022/01/08 04:36:14;;;;;;;16.48;2.28;;;;;;;11.49;49.49;99576.66;4418660;32;20149;-69
2022/01/08 04:38:40;;;;;;;17.50;1.75;;;;;;;11.46;49.96;99566.31;4415586;32;20446;-69
2022/01/08 04:41:05;;;;;;;9.05;1.70;;;;;;;11.51;50.31;99559.28;4416720;32;20041;-69
2022/01/08 04:43:33;;;;;;;15.13;1.48;;;;;;;11.35;51.18;99545.53;4416394;32;20089;-69
2022/01/08 04:45:59;;;;;;;11.38;1.70;;;;;;;11.60;50.95;99539.53;4418414;32;20415;-69
2022/01/08 04:48:25;;;;;;;9.30;1.80;;;;;;;11.49;51.41;99533.59;4413832;32;20037;-69
2022/01/08 04:50:50;;;;;;;13.35;1.85;;;;;;;11.61;51.44;99524.97;4416429;32;20347;-69
2022/01/08 04:53:16;;;;;;;10.93;1.70;;;;;;;11.53;51.33;99514.47;4414443;32;20097;-69
2022/01/08 04:55:42;;;;;;;11.50;1.50;;;;;;;11.54;51.75;99518.88;4417034;32;20076;-69
2022/01/08 04:58:07;;;;;;;10.65;1.30;;;;;;;11.69;51.37;99522.63;4415106;32;20037;-69
2022/01/08 05:00:37;;;;;;;6.25;1.48;;;;;;;11.78;51.29;99514.09;4414793;32;20394;-69
2022/01/08 05:03:03;;;;;;;8.35;1.80;;;;;;;12.04;50.79;99509.59;4414363;32;20382;-69
2022/01/08 05:05:29;;;;;;;4.37;1.45;;;;;;;12.01;50.88;99485.97;4410680;32;20112;-69
2022/01/08 05:07:55;;;;;;;6.90;1.87;;;;;;;12.14;50.56;99477.28;4417340;32;20050;-69
2022/01/08 05:10:21;;;;;;;6.72;1.58;;;;;;;12.35;50.17;99472.59;4413812;32;20189;-69
2022/01/08 05:12:46;;;;;;;8.13;2.28;;;;;;;12.32;49.82;99468.69;4418052;32;20224;-69
2022/01/08 05:15:12;;;;;;;3.72;1.40;;;;;;;12.60;49.35;99464.41;4413397;32;20745;-69
2022/01/08 05:17:39;;;;;;;8.50;1.50;;;;;;;12.61;49.55;99457.47;4415143;32;20069;-69
2022/01/08 05:20:10;;;;;;;7.47;1.70;;;;;;;12.72;49.16;99454.09;4414411;32;20037;-69
2022/01/08 05:22:50;;;;;;;6.97;1.80;;;;;;;12.77;49.37;99447.78;4412490;32;20071;-69
2022/01/08 05:25:18;;;;;;;6.53;1.95;;;;;;;12.71;49.50;99444.87;4412410;32;20069;-69
2022/01/08 05:27:44;;;;;;;4.50;1.70;;;;;;;12.46;49.44;99439.75;4416637;32;20092;-68
2022/01/08 05:30:12;;;;;;;9.20;2.10;;;;;;;12.53;50.17;99421.66;4415278;32;20077;-69
2022/01/08 05:32:38;;;;;;;14.48;3.53;;;;;;;12.31;50.06;99422.00;4413587;32;20099;-68
2022/01/08 05:35:04;;;;;;;6.15;2.67;;;;;;;12.28;50.64;99411.69;4413583;32;20389;-69
2022/01/08 05:37:30;;;;;;;11.68;2.70;;;;;;;11.85;51.88;99406.66;4414017;32;20045;-69
2022/01/08 05:39:56;;;;;;;11.85;2.95;;;;;;;12.07;51.60;99401.50;4414064;32;20041;-69
2022/01/08 05:42:22;;;;;;;8.95;2.50;;;;;;;12.18;51.19;99396.06;4410161;32;20113;-69
2022/01/08 05:44:48;;;;;;;6.30;2.65;;;;;;;12.09;51.48;99384.91;4411778;32;20030;-69
2022/01/08 05:47:14;;;;;;;9.45;2.75;;;;;;;11.77;52.48;99372.41;4406254;32;20794;-69
2022/01/08 05:49:39;;;;;;;9.52;3.08;;;;;;;11.82;52.19;99373.81;4406354;32;20033;-70
2022/01/08 05:52:07;;;;;;;9.98;3.33;;;;;;;11.77;52.46;99366.78;4414202;32;20130;-69
2022/01/08 05:54:34;;;;;;;5.85;2.85;;;;;;;12.10;51.90;99352.59;4413241;32;20060;-69
2022/01/08 05:57:00;;;;;;;13.13;2.80;;;;;;;11.79;52.65;99338.87;4414188;32;20082;-69
2022/01/08 05:59:27;;;;;;;5.57;2.62;;;;;;;11.73;52.83;99325.94;4413756;32;20496;-69
2022/01/08 06:01:54;;;;;;;13.25;3.40;;;;;;;11.64;53.10;99318.34;4413789;32;20454;-70
2022/01/08 06:04:20;;;;;;;12.15;3.75;;;;;;;11.59;53.59;99313.34;4411986;32;20099;-69
2022/01/08 06:06:46;;;;;;;11.98;3.42;;;;;;;11.44;53.66;99308.88;4413977;32;20039;-69
2022/01/08 06:09:12;;;;;;;10.65;3.83;;;;;;;11.48;53.79;99298.25;4407230;32;20127;-69
2022/01/08 06:11:37;;;;;;;23.95;3.80;;;;;;;11.28;54.39;99295.22;4415176;32;20059;-69
2022/01/08 06:14:04;;;;;;;13.93;3.55;;;;;;;11.39;54.38;99284.22;4408770;32;20065;-69
2022/01/08 06:16:34;;;;;;;10.73;3.50;;;;;;;11.25;54.50;99277.25;4413633;32;20128;-69
2022/01/08 06:19:03;;;;;;;11.80;5.45;;;;;;;11.33;54.62;99286.13;4413257;32;20098;-69
2022/01/08 06:21:28;;;;;;;9.38;4.30;;;;;;;11.56;54.38;99274.06;4411949;32;20069;-69
2022/01/08 06:23:54;;;;;;;10.13;4.35;;;;;;;11.49;54.36;99254.72;4414892;32;20037;-69
2022/01/08 06:26:21;;;;;;;14.52;4.72;;;;;;;11.32;54.78;99247.97;4413196;32;20526;-69
2022/01/08 06:28:49;;;;;;;16.83;4.45;;;;;;;11.33;54.86;99236.22;4412802;32;20073;-69
2022/01/08 06:31:15;;;;;;;14.90;4.43;;;;;;;11.33;54.78;99238.25;4411826;32;20427;-69
2022/01/08 06:33:42;;;;;;;15.13;5.57;;;;;;;11.42;54.90;99222.03;4413994;32;20103;-68
2022/01/08 06:36:07;;;;;;;16.33;5.78;;;;;;;11.51;54.63;99212.78;4414761;32;20077;-68
2022/01/08 06:38:33;;;;;;;15.25;5.75;;;;;;;11.35;54.64;99197.06;4416212;32;20403;-68
2022/01/08 06:40:59;;;;;;;21.87;6.00;;;;;;;11.37;54.70;99202.22;4419170;32;20060;-68
2022/01/08 06:43:24;;;;;;;20.55;6.75;;;;;;;11.13;55.43;99184.56;4421374;32;20419;-69
2022/01/08 06:45:50;;;;;;;17.08;5.45;;;;;;;11.24;55.37;99179.97;4413982;32;20613;-68
2022/01/08 06:48:16;;;;;;;15.05;6.93;;;;;;;11.49;54.73;99173.03;4413493;32;20081;-68
2022/01/08 06:50:41;;;;;;;18.73;6.45;;;;;;;11.44;54.77;99170.87;4418441;32;20063;-68
2022/01/08 06:53:07;;;;;;;16.10;8.35;;;;;;;11.41;54.98;99143.66;4416471;32;20298;-68
2022/01/08 06:55:34;;;;;;;20.27;8.25;;;;;;;11.81;54.17;99112.94;4419977;32;20078;-68
2022/01/08 06:58:00;;;;;;;24.33;8.57;;;;;;;11.73;54.10;99104.09;4413896;32;20334;-68
2022/01/08 07:00:26;;;;;;;21.17;9.48;;;;;;;11.70;54.29;99107.91;4414172;32;20049;-68
2022/01/08 07:02:52;;;;;;;30.70;11.10;;;;;;;11.77;53.91;99121.59;4414519;32;20077;-68
2022/01/08 07:05:18;;;;;;;30.02;11.15;;;;;;;11.76;53.87;99102.37;4416181;32;20121;-69
2022/01/08 07:07:43;;;;;;;33.40;12.82;;;;;;;11.99;53.40;99098.66;4416942;32;20631;-69
2022/01/08 07:10:09;;;;;;;29.40;12.13;;;;;;;11.66;54.17;99093.22;4408808;32;20360;-69
2022/01/08 07:12:35;;;;;;;29.65;12.35;;;;;;;12.03;53.45;99087.97;4417424;32;20074;-68
2022/01/08 07:15:02;;;;;;;28.38;12.43;;;;;;;12.10;53.43;99082.69;4418063;32;20091;-69
2022/01/08 07:17:29;;;;;;;25.80;12.88;;;;;;;12.29;53.03;99086.06;4419258;32;20411;-68
2022/01/08 07:19:54;;;;;;;33.10;14.23;;;;;;;12.17;53.31;99061.78;4414567;32;20514;-69
2022/01/08 07:22:20;;;;;;;25.17;13.13;;;;;;;12.16;53.42;99068.69;4414073;32;20148;-68
2022/01/08 07:24:45;;;;;;;33.25;14.38;;;;;;;12.17;53.23;99058.16;4414348;32;20047;-68
2022/01/08 07:27:11;;;;;;;27.58;13.10;;;;;;;12.05;53.77;99062.87;4417731;32;20137;-68
2022/01/08 07:29:37;;;;;;;26.15;13.85;;;;;;;12.16;53.40;99054.59;4412933;32;20368;-69
2022/01/08 07:32:03;;;;;;;31.00;13.90;;;;;;;12.27;53.01;99043.47;4418032;32;20510;-68
2022/01/08 07:34:30;;;;;;;29.35;14.65;;;;;;;12.40;53.20;99029.03;4411994;32;20114;-67
2022/01/08 07:36:55;;;;;;;30.95;15.00;;;;;;;12.22;53.85;99027.25;4421312;32;20712;-67
2022/01/08 07:39:21;;;;;;;36.63;15.23;;;;;;;12.18;54.15;99017.44;4416239;32;20076;-67
2022/01/08 07:41:46;;;;;;;31.92;14.00;;;;;;;12.23;53.78;99000.59;4412699;32;20399;-67
2022/01/08 07:44:12;;;;;;;28.40;13.18;;;;;;;12.17;54.40;98998.94;4414716;32;20518;-68
2022/01/08 07:46:39;;;;;;;26.17;12.52;;;;;;;12.22;54.13;98992.63;4418385;32;20438;-69
2022/01/08 07:49:04;;;;;;;22.02;12.13;;;;;;;12.20;54.64;98981.06;4413900;32;20431;-69
2022/01/08 07:51:30;;;;;;;21.45;11.57;;;;;;;12.17;54.62;98959.47;4407483;32;20085;-70
2022/01/08 07:53:56;;;;;;;23.95;11.30;;;;;;;12.05;54.47;98955.72;4416735;32;20109;-70
2022/01/08 07:56:21;;;;;;;24.48;11.38;;;;;;;12.03;54.99;98936.50;4410930;32;20083;-70
2022/01/08 07:58:47;;;;;;;19.67;10.65;;;;;;;12.39;53.89;98935.16;4419601;32;20092;-70
2022/01/08 08:01:13;;;;;;;28.10;11.77;;;;;;;12.31;54.25;98925.59;4412518;32;20034;-70
2022/01/08 08:03:38;;;;;;;21.90;12.05;;;;;;;12.39;54.00;98920.31;4413084;32;20027;-69
2022/01/08 08:06:10;;;;;;;21.67;11.12;;;;;;;12.34;53.93;98907.69;4412151;32;20426;-68
2022/01/08 08:08:35;;;;;;;23.25;11.32;;;;;;;12.58;54.04;98896.16;4419801;32;20378;-69
2022/01/08 08:11:02;;;;;;;28.87;11.35;;;;;;;12.50;53.99;98890.16;4415093;32;20582;-68
2022/01/08 08:13:27;;;;;;;23.52;11.02;;;;;;;12.52;54.10;98890.44;4412975;32;20104;-68
2022/01/08 08:15:53;;;;;;;22.98;11.02;;;;;;;12.52;54.17;98884.78;4415031;32;20037;-68
2022/01/08 08:18:19;;;;;;;22.75;10.50;;;;;;;12.65;54.47;98873.91;4419783;32;20056;-68
2022/01/08 08:20:44;;;;;;;23.65;10.40;;;;;;;12.78;54.48;98867.88;4417738;32;20490;-68
2022/01/08 08:23:10;;;;;;;22.05;10.30;;;;;;;12.82;54.38;98863.56;4418033;32;20026;-69
2022/01/08 08:25:36;;;;;;;24.10;11.05;;;;;;;12.60;55.29;98851.28;4411077;32;20073;-69
2022/01/08 08:28:05;;;;;;;22.73;10.70;;;;;;;12.75;55.27;98843.47;4417607;32;20167;-69
2022/01/08 08:30:31;;;;;;;23.10;10.30;;;;;;;12.92;55.19;98838.75;4413376;32;20049;-69
2022/01/08 08:32:56;;;;;;;26.92;10.60;;;;;;;12.89;54.79;98834.87;4415394;32;20401;-69
2022/01/08 08:35:22;;;;;;;19.42;10.02;;;;;;;12.88;55.19;98829.72;4411524;32;20087;-69
2022/01/08 08:37:48;;;;;;;21.00;10.80;;;;;;;13.08;54.69;98830.47;4417792;32;20341;-69
2022/01/08 08:40:14;;;;;;;21.23;9.95;;;;;;;13.09;54.61;98822.75;4412334;32;20060;-70
2022/01/08 08:42:42;;;;;;;21.58;9.85;;;;;;;13.17;54.62;98813.34;4413093;32;20038;-70
2022/01/08 08:45:09;;;;;;;21.37;10.63;;;;;;;13.42;54.27;98798.34;4416976;32;20569;-70
2022/01/08 08:47:35;;;;;;;19.87;10.32;;;;;;;13.39;54.22;98796.53;4410948;32;20037;-70
2022/01/08 08:50:03;;;;;;;18.42;9.85;;;;;;;13.18;54.71;98789.47;4417614;32;20115;-70
2022/01/08 08:52:29;;;;;;;19.12;9.40;;;;;;;13.49;54.01;98775.28;4412277;32;20357;-69
2022/01/08 08:54:55;;;;;;;15.30;8.13;;;;;;;13.43;54.20;98765.19;4415393;32;20140;-69
2022/01/08 08:57:20;;;;;;;18.50;8.43;;;;;;;13.34;54.47;98756.94;4416934;32;20077;-68
2022/01/08 08:59:46;;;;;;;15.60;7.82;;;;;;;13.64;54.01;98746.81;4413332;32;20041;-68
2022/01/08 09:02:12;;;;;;;18.58;8.52;;;;;;;13.37;54.75;98751.06;4412427;32;20093;-69
2022/01/08 09:04:40;;;;;;;19.02;8.85;;;;;;;13.81;53.54;98734.28;4415897;32;20093;-68
2022/01/08 09:07:06;;;;;;;18.23;8.00;;;;;;;13.53;54.00;98733.41;4415713;32;20041;-68
2022/01/08 09:09:32;;;;;;;14.00;8.07;;;;;;;13.81;53.75;98713.75;4407807;32;20073;-68
2022/01/08 09:12:01;;;;;;;13.23;7.53;;;;;;;13.85;53.35;98706.56;4414434;32;20396;-68
2022/01/08 09:14:26;;;;;;;15.40;7.68;;;;;;;13.78;53.84;98695.72;4413373;32;20261;-68
2022/01/08 09:16:57;;;;;;;20.33;7.12;;;;;;;14.10;53.03;98690.66;4414326;32;20075;-68
2022/01/08 09:19:25;;;;;;;16.10;6.40;;;;;;;14.17;52.84;98693.00;4411582;32;20296;-68
2022/01/08 09:21:51;;;;;;;9.60;5.30;;;;;;;13.97;53.28;98679.84;4414396;32;20081;-68
2022/01/08 09:24:19;;;;;;;9.38;5.32;;;;;;;14.31;53.00;98672.22;4413011;32;20345;-69
2022/01/08 09:26:46;;;;;;;8.15;5.07;;;;;;;14.68;52.42;98669.09;4417160;32;20057;-69
2022/01/08 09:29:12;;;;;;;8.77;4.30;;;;;;;14.57;52.27;98647.25;4416026;32;20046;-69
2022/01/08 09:31:39;;;;;;;8.45;4.90;;;;;;;14.55;51.56;98640.56;4413007;32;20033;-69
2022/01/08 09:34:05;;;;;;;8.73;6.37;;;;;;;14.86;51.91;98643.09;4416698;32;20471;-70
2022/01/08 09:36:31;;;;;;;16.77;5.95;;;;;;;15.14;51.39;98624.72;4414242;32;20069;-70
2022/01/08 09:38:57;;;;;;;5.57;3.90;;;;;;;14.69;52.00;98619.69;4411162;32;20422;-70
2022/01/08 09:41:24;;;;;;;7.05;3.70;;;;;;;14.98;51.60;98611.41;4414583;32;20034;-70
2022/01/08 09:43:49;;;;;;;7.00;3.03;;;;;;;15.08;51.12;98597.72;4411609;32;20026;-70
2022/01/08 09:46:16;;;;;;;5.82;2.90;;;;;;;14.99;51.54;98592.34;4412574;32;20075;-70
2022/01/08 09:48:43;;;;;;;6.25;3.22;;;;;;;15.26;51.11;98588.63;4407544;32;20086;-70
2022/01/08 09:51:09;;;;;;;6.03;3.28;;;;;;;15.40;50.93;98576.22;4408012;32;20038;-71
2022/01/08 09:53:36;;;;;;;4.95;2.42;;;;;;;15.37;51.38;98560.28;4415046;32;20141;-71
2022/01/08 09:56:03;;;;;;;4.37;2.53;;;;;;;15.49;51.24;98568.16;4412840;32;20438;-70
2022/01/08 09:58:28;;;;;;;6.45;2.47;;;;;;;15.53;50.95;98562.25;4414478;32;20328;-70
2022/01/08 10:00:54;;;;;;;4.18;2.80;;;;;;;15.46;51.09;98554.28;4414381;32;20064;-71
2022/01/08 10:03:23;;;;;;;3.08;2.10;;;;;;;15.64;50.98;98545.13;4409377;32;20030;-70
2022/01/08 10:08:28;;;;;;;5.12;2.20;;;;;;;16.34;50.79;98525.22;3951732;32;15738787;-70
2022/01/08 10:10:57;;;;;;;3.95;2.60;;;;;;;16.34;50.79;98525.22;4425381;32;20037;-70
2022/01/08 10:13:26;;;;;;;3.60;2.37;;;;;;;16.24;50.89;98515.53;4429537;32;20196;-70
2022/01/08 10:18:39;;;;;;;;;;;;;;;16.03;51.25;98494.56;4428142;32;20081;-70
2022/01/08 10:24:02;;;;;;;4.68;2.20;;;;;;;16.97;49.59;98479.34;3980783;32;15024724;-70
2022/01/08 10:26:34;;;;;;;5.10;2.55;;;;;;;16.97;49.59;98479.34;4435093;32;20037;-70
2022/01/08 10:29:02;;;;;;;8.18;3.00;;;;;;;16.32;50.86;98465.38;4435430;32;20341;-70
2022/01/08 10:31:34;;;;;;;4.75;2.40;;;;;;;16.51;50.71;98457.69;4433470;32;20030;-70
2022/01/08 10:36:42;;;;;;;5.75;2.70;;;;;;;17.01;49.57;98426.59;3980856;32;15023883;-70
2022/01/08 10:39:12;;;;;;;4.18;1.98;;;;;;;17.01;49.57;98426.59;4433150;32;20108;-70
2022/01/08 10:41:42;;;;;;;7.18;2.87;;;;;;;16.61;50.37;98415.53;4425329;32;20097;-71
2022/01/08 10:46:55;;;;;;;6.50;1.87;;;;;;;17.12;50.43;98393.87;3949904;32;15725105;-70
2022/01/08 10:52:15;;;;;;;4.55;2.20;;;;;;;16.43;51.62;98382.97;3977078;32;15031187;-70
2022/01/08 10:54:43;;;;;;;5.35;2.17;;;;;;;16.75;51.42;98369.63;4433847;32;20067;-70
2022/01/08 10:57:12;;;;;;;6.30;2.28;;;;;;;16.71;51.72;98363.50;4431571;32;20068;-70
2022/01/08 10:59:39;;;;;;;6.60;2.00;;;;;;;16.74;51.85;98347.44;4429650;32;20068;-70
2022/01/08 11:07:25;;;;;;;3.15;1.60;;;;;;;17.48;50.75;98333.13;3976429;32;15025671;-70
2022/01/08 11:09:53;;;;;;;10.68;1.95;;;;;;;17.48;50.75;98333.13;4426143;32;20073;-70
2022/01/08 11:12:25;;;;;;;5.68;1.80;;;;;;;17.34;51.03;98318.06;4434410;32;20371;-71
2022/01/08 11:25:28;;;;;;;3.62;1.65;;;;;;;18.40;49.23;98303.41;3987401;32;15021588;-70
2022/01/08 11:30:37;;;;;;;9.20;1.80;;;;;;;18.30;49.33;98290.91;3977406;32;15024773;-68
2022/01/08 11:33:10;;;;;;;2.42;1.17;;;;;;;18.30;49.33;98290.91;4429938;32;20073;-69
2022/01/08 11:35:38;;;;;;;2.50;1.40;;;;;;;17.59;50.91;98270.37;4428117;32;21602;-70
2022/01/08 11:38:07;;;;;;;6.50;1.80;;;;;;;17.59;50.90;98264.69;4428099;32;20090;-70
2022/01/08 11:40:36;;;;;;;4.90;1.60;;;;;;;17.26;51.88;98260.34;4432895;32;20314;-70
2022/01/08 11:43:04;;;;;;;7.37;1.92;;;;;;;17.26;52.14;98253.88;4430121;32;20042;-70
2022/01/08 11:45:34;;;;;;;7.18;2.15;;;;;;;17.39;52.32;98240.47;4431760;32;20087;-71
2022/01/08 11:48:04;;;;;;;6.43;1.50;;;;;;;17.77;51.30;98235.38;4428827;32;20080;-71
2022/01/08 11:50:32;;;;;;;3.50;1.75;;;;;;;17.97;51.00;98256.69;4415992;32;20078;-71
2022/01/08 11:55:58;;;;;;;8.63;1.27;;;;;;;17.59;50.19;98344.31;3955271;32;15726410;-69
2022/01/08 12:03:40;;;;;;;5.32;1.10;;;;;;;16.74;46.31;98351.06;3978643;32;15023691;-69
2022/01/08 12:11:33;;;;;;;7.12;1.60;;;;;;;16.57;46.17;98339.16;3976660;32;15024542;-69
2022/01/08 12:14:24;;;;;;;8.80;1.52;;;;;;;16.57;46.17;98339.16;4436285;32;20044;-69
2022/01/08 12:16:55;;;;;;;12.37;1.92;;;;;;;16.45;45.48;98334.97;4434591;32;20049;-69
2022/01/08 12:19:43;;;;;;;12.43;2.17;;;;;;;17.05;45.33;98327.59;4435861;32;20402;-70
2022/01/08 12:22:29;;;;;;;11.88;1.90;;;;;;;17.27;44.92;98326.47;4434454;32;20077;-70
2022/01/08 12:24:58;;;;;;;11.85;2.58;;;;;;;17.54;45.51;98320.34;4432654;32;20029;-68
2022/01/08 12:27:44;;;;;;;9.57;1.62;;;;;;;17.46;45.70;98316.59;4433570;32;20060;-68
2022/01/08 12:33:20;;;;;;;15.95;2.35;;;;;;;18.08;43.67;98324.75;3974405;32;15146215;-70